Time;durP1;ratioP1;P1;durP2;ratioP2;P2;SDS_P1;SDS_P2;PMS_P1;PMS_P2;Temp;Humidity;BMP_temperature;BMP_pressure;BME280_temperature;BME280_humidity;BME280_pressure;Samples;Min_cycle;Max_cycle;Signal;HPM_P1;HPM_P2
2023/08/17 00:00:44;;;;;;;4.97;3.10;;;;;;;22.43;96.50;99235.72;5108915;28;20236;-58
2023/08/17 00:03:12;;;;;;;7.88;3.20;;;;;;;22.41;96.86;99235.13;5109100;28;20198;-59
2023/08/17 00:05:38;;;;;;;4.60;3.17;;;;;;;22.41;96.49;99237.72;5109648;28;20197;-58
2023/08/17 00:08:06;;;;;;;4.47;3.40;;;;;;;22.40;96.93;99236.09;5109225;28;20197;-58
2023/08/17 00:10:33;;;;;;;4.25;3.05;;;;;;;22.38;96.97;99228.47;5108968;28;20209;-58
2023/08/17 00:13:00;;;;;;;5.55;3.80;;;;;;;22.36;96.92;99241.69;5109212;28;20204;-59
2023/08/17 00:15:26;;;;;;;6.40;3.45;;;;;;;22.40;96.39;99236.09;5108862;28;20194;-58
2023/08/17 00:17:55;;;;;;;5.70;2.97;;;;;;;22.33;97.31;99242.03;5108203;28;20706;-58
2023/08/17 00:20:21;;;;;;;4.50;3.40;;;;;;;22.32;97.05;99239.63;5109475;28;20233;-58
2023/08/17 00:22:48;;;;;;;4.40;2.85;;;;;;;22.30;97.25;99231.19;5108940;28;20200;-58
2023/08/17 00:25:15;;;;;;;4.00;3.08;;;;;;;22.26;97.70;99235.97;5108457;28;20225;-58
2023/08/17 00:27:42;;;;;;;3.47;2.70;;;;;;;22.25;97.62;99238.72;5108546;28;20223;-58
2023/08/17 00:30:10;;;;;;;5.20;3.30;;;;;;;22.23;97.92;99238.94;5109302;28;20220;-58
2023/08/17 00:32:36;;;;;;;3.97;3.30;;;;;;;22.21;97.98;99238.31;5108620;28;20212;-58
2023/08/17 00:35:06;;;;;;;5.65;3.42;;;;;;;22.18;98.20;99236.06;5108860;28;20204;-58
2023/08/17 00:37:32;;;;;;;5.00;3.45;;;;;;;22.18;98.70;99238.66;5108799;28;20208;-58
2023/08/17 00:39:59;;;;;;;4.57;3.00;;;;;;;22.18;98.77;99238.66;5108384;28;20623;-58
2023/08/17 00:42:26;;;;;;;3.55;3.00;;;;;;;22.15;99.40;99233.78;5107979;28;20208;-58
2023/08/17 00:44:53;;;;;;;4.97;3.25;;;;;;;22.14;99.28;99240.00;5108654;28;20205;-58
2023/08/17 00:47:20;;;;;;;4.25;3.05;;;;;;;22.15;99.36;99241.59;5108662;28;20197;-58
2023/08/17 00:49:47;;;;;;;4.95;2.85;;;;;;;22.14;99.44;99237.41;5107835;28;20209;-58
2023/08/17 00:52:15;;;;;;;12.40;3.30;;;;;;;22.10;99.92;99238.72;5108469;28;20193;-58
2023/08/17 00:54:42;;;;;;;4.82;3.38;;;;;;;22.11;99.44;99242.97;5108975;28;20212;-58
2023/08/17 00:57:10;;;;;;;4.50;3.42;;;;;;;22.07;99.42;99237.28;5107827;28;20587;-58
2023/08/17 00:59:37;;;;;;;4.82;2.95;;;;;;;22.08;99.94;99238.13;5108295;28;20587;-58
2023/08/17 01:02:05;;;;;;;6.22;3.22;;;;;;;22.07;100.00;99241.69;5108524;28;20220;-58
2023/08/17 01:04:33;;;;;;;4.18;3.03;;;;;;;22.06;99.67;99245.28;5108177;28;20204;-58
2023/08/17 01:06:59;;;;;;;6.20;3.25;;;;;;;22.03;100.00;99248.25;5107801;28;20686;-58
2023/08/17 01:09:28;;;;;;;8.80;3.28;;;;;;;21.98;100.00;99246.19;5108407;28;20211;-59
2023/08/17 01:12:02;;;;;;;4.50;3.15;;;;;;;21.97;100.00;99252.41;5108079;28;20197;-58
2023/08/17 01:14:38;;;;;;;6.03;3.40;;;;;;;21.98;100.00;99248.00;5107442;28;20220;-58
2023/08/17 01:17:12;;;;;;;5.70;3.60;;;;;;;21.91;100.00;99251.31;5108390;28;20204;-58
2023/08/17 01:19:41;;;;;;;5.50;3.58;;;;;;;21.84;100.00;99253.00;5108340;28;20201;-58
2023/08/17 01:22:11;;;;;;;5.85;3.30;;;;;;;21.75;100.00;99251.47;5107383;28;20633;-58
2023/08/17 01:24:39;;;;;;;5.20;3.75;;;;;;;21.71;100.00;99252.84;5108370;28;20205;-58
2023/08/17 01:27:07;;;;;;;7.45;3.47;;;;;;;21.69;100.00;99249.59;5108521;28;20208;-58
2023/08/17 01:29:34;;;;;;;7.83;3.43;;;;;;;21.64;100.00;99249.31;5107316;28;20196;-59
2023/08/17 01:32:08;;;;;;;4.03;3.35;;;;;;;21.60;100.00;99255.88;5107298;28;20615;-58
2023/08/17 01:34:41;;;;;;;6.35;3.55;;;;;;;21.57;100.00;99251.03;5108429;28;20202;-60
2023/08/17 01:37:10;;;;;;;8.00;3.60;;;;;;;21.50;100.00;99252.72;5108354;28;20202;-58
2023/08/17 01:39:43;;;;;;;4.20;3.30;;;;;;;21.48;100.00;99245.09;5107374;28;20193;-58
2023/08/17 01:42:11;;;;;;;4.80;3.13;;;;;;;21.41;100.00;99246.78;5108268;28;20235;-58
2023/08/17 01:44:39;;;;;;;4.67;3.30;;;;;;;21.35;100.00;99253.47;5108290;28;20201;-58
2023/08/17 01:47:06;;;;;;;8.03;3.27;;;;;;;21.33;100.00;99255.44;5107978;28;20601;-58
2023/08/17 01:49:33;;;;;;;4.20;2.97;;;;;;;21.34;100.00;99249.25;5107849;28;20261;-58
2023/08/17 01:52:00;;;;;;;4.32;3.30;;;;;;;21.28;100.00;99247.34;5107859;28;20197;-58
2023/08/17 01:54:27;;;;;;;4.03;3.00;;;;;;;21.26;100.00;99254.50;5107626;28;20202;-58
2023/08/17 01:56:55;;;;;;;4.77;3.17;;;;;;;21.31;100.00;99247.00;5107251;28;20209;-58
2023/08/17 01:59:22;;;;;;;6.37;3.17;;;;;;;21.38;100.00;99249.72;5107805;28;20228;-58
2023/08/17 02:01:49;;;;;;;4.70;3.37;;;;;;;21.38;100.00;99242.75;5107804;28;20238;-59
2023/08/17 02:04:17;;;;;;;5.30;3.40;;;;;;;21.33;100.00;99247.63;5106993;28;20230;-59
2023/08/17 02:06:44;;;;;;;4.60;2.90;;;;;;;21.31;100.00;99246.19;5107912;28;20213;-58
2023/08/17 02:09:10;;;;;;;9.20;3.60;;;;;;;21.25;100.00;99237.31;5107957;28;20205;-58
2023/08/17 02:11:37;;;;;;;5.83;3.30;;;;;;;21.22;100.00;99242.84;5107303;28;20201;-58
2023/08/17 02:14:06;;;;;;;6.20;3.37;;;;;;;21.23;100.00;99241.88;5107493;28;20209;-58
2023/08/17 02:16:32;;;;;;;4.13;3.00;;;;;;;21.24;100.00;99233.09;5108588;28;20205;-58
2023/08/17 02:18:59;;;;;;;4.88;3.22;;;;;;;21.24;100.00;99236.50;5110987;28;20209;-58
2023/08/17 02:21:26;;;;;;;7.03;4.07;;;;;;;21.25;100.00;99238.09;5111258;28;20632;-58
2023/08/17 02:23:53;;;;;;;5.37;3.33;;;;;;;21.26;100.00;99236.31;5111701;28;20220;-58
2023/08/17 02:26:19;;;;;;;7.83;3.10;;;;;;;21.23;100.00;99234.91;5111096;28;20193;-59
2023/08/17 02:28:46;;;;;;;4.30;3.27;;;;;;;21.19;100.00;99233.59;5110918;28;20190;-58
2023/08/17 02:31:14;;;;;;;4.67;3.17;;;;;;;21.18;100.00;99236.41;5111283;28;20207;-58
2023/08/17 02:33:41;;;;;;;7.57;3.37;;;;;;;21.15;100.00;99236.75;5111207;28;20209;-58
2023/08/17 02:36:08;;;;;;;5.23;3.47;;;;;;;21.16;100.00;99233.16;5110971;28;20206;-58
2023/08/17 02:38:35;;;;;;;4.20;3.17;;;;;;;21.15;100.00;99239.34;5111132;28;20218;-58
2023/08/17 02:41:02;;;;;;;4.00;3.30;;;;;;;21.13;100.00;99242.13;5111114;28;20243;-59
2023/08/17 02:43:28;;;;;;;5.40;3.50;;;;;;;21.10;100.00;99236.47;5110676;28;20232;-58
2023/08/17 02:45:55;;;;;;;5.80;3.27;;;;;;;21.10;100.00;99239.06;5110335;28;20198;-58
2023/08/17 02:48:23;;;;;;;6.10;3.43;;;;;;;21.01;100.00;99230.53;5110998;28;20515;-58
2023/08/17 02:50:50;;;;;;;7.23;3.67;;;;;;;20.99;100.00;99230.69;5110547;28;20204;-58
2023/08/17 02:53:17;;;;;;;3.63;2.97;;;;;;;20.99;100.00;99232.47;5109964;28;20678;-58
2023/08/17 02:55:44;;;;;;;5.90;3.43;;;;;;;20.97;100.00;99235.28;5110802;28;20689;-58
2023/08/17 02:58:11;;;;;;;5.53;3.70;;;;;;;20.98;100.00;99229.06;5111028;28;20197;-58
2023/08/17 03:00:37;;;;;;;3.70;2.93;;;;;;;20.98;100.00;99236.88;5110072;28;20243;-58
2023/08/17 03:03:05;;;;;;;4.30;3.27;;;;;;;20.99;100.00;99233.28;5110644;28;20196;-58
2023/08/17 03:05:34;;;;;;;4.73;3.40;;;;;;;20.99;100.00;99233.28;5110777;27;20588;-58
2023/08/17 03:08:01;;;;;;;5.00;3.60;;;;;;;20.99;100.00;99241.06;5110349;27;20199;-58
2023/08/17 03:10:27;;;;;;;5.40;3.37;;;;;;;20.99;100.00;99232.47;5110275;28;20206;-58
2023/08/17 03:12:54;;;;;;;9.33;3.53;;;;;;;21.00;100.00;99236.69;5110440;28;20193;-58
2023/08/17 03:15:21;;;;;;;3.77;3.07;;;;;;;20.91;100.00;99235.94;5109771;28;20584;-59
2023/08/17 03:17:48;;;;;;;4.23;3.37;;;;;;;20.91;100.00;99242.94;5109980;28;20195;-58
2023/08/17 03:20:14;;;;;;;4.60;3.13;;;;;;;20.90;100.00;99236.94;5110614;28;20204;-58
2023/08/17 03:22:43;;;;;;;6.53;3.60;;;;;;;20.88;100.00;99231.09;5110182;28;20242;-58
2023/08/17 03:25:10;;;;;;;6.57;3.47;;;;;;;20.85;100.00;99230.63;5109714;28;20204;-58
2023/08/17 03:27:37;;;;;;;5.20;3.63;;;;;;;20.79;100.00;99237.31;5110151;28;20208;-58
2023/08/17 03:30:04;;;;;;;7.03;3.30;;;;;;;20.80;100.00;99238.97;5110857;28;20197;-58
2023/08/17 03:32:31;;;;;;;4.23;3.20;;;;;;;20.80;100.00;99242.38;5109700;28;20211;-58
2023/08/17 03:34:58;;;;;;;4.90;3.50;;;;;;;20.78;100.00;99235.72;5110013;28;20398;-58
2023/08/17 03:37:25;;;;;;;5.03;3.37;;;;;;;20.78;100.00;99235.72;5110036;27;20207;-58
2023/08/17 03:39:53;;;;;;;6.50;3.53;;;;;;;20.77;100.00;99245.31;5109593;28;20209;-58
2023/08/17 03:42:20;;;;;;;4.27;3.30;;;;;;;20.72;100.00;99249.41;5109576;28;20226;-58
2023/08/17 03:44:47;;;;;;;4.47;3.27;;;;;;;20.72;100.00;99246.81;5109736;28;20210;-58
2023/08/17 03:47:14;;;;;;;5.67;3.87;;;;;;;20.70;100.00;99248.75;5109970;27;20598;-58
2023/08/17 03:49:41;;;;;;;7.60;3.50;;;;;;;20.74;100.00;99250.03;5108982;28;20639;-58
2023/08/17 03:52:07;;;;;;;4.00;2.93;;;;;;;20.73;100.00;99251.00;5109816;28;20359;-58
2023/08/17 03:54:34;;;;;;;4.77;3.37;;;;;;;20.72;100.00;99252.00;5109786;28;20197;-58
2023/08/17 03:57:03;;;;;;;5.97;3.53;;;;;;;20.74;100.00;99256.06;5109345;28;20202;-58
2023/08/17 03:59:29;;;;;;;7.53;3.70;;;;;;;20.73;100.00;99254.41;5109662;28;20231;-58
2023/08/17 04:01:56;;;;;;;4.60;3.70;;;;;;;20.75;100.00;99262.06;5109108;28;20236;-58
2023/08/17 04:04:23;;;;;;;5.30;3.80;;;;;;;20.76;100.00;99258.47;5108995;28;20678;-59
2023/08/17 04:06:50;;;;;;;5.37;3.87;;;;;;;20.79;100.00;99252.91;5109199;28;20613;-58
2023/08/17 04:09:17;;;;;;;4.80;3.80;;;;;;;20.76;100.00;99248.06;5109408;28;20204;-58
2023/08/17 04:11:43;;;;;;;6.37;3.40;;;;;;;20.79;100.00;99253.72;5108958;28;20211;-58
2023/08/17 04:14:12;;;;;;;5.80;3.77;;;;;;;20.81;100.00;99248.38;5108611;28;20759;-58
2023/08/17 04:16:39;;;;;;;5.10;3.30;;;;;;;20.84;100.00;99255.81;5109012;28;20203;-58
2023/08/17 04:19:06;;;;;;;6.83;3.47;;;;;;;20.86;100.00;99259.06;5109243;28;20207;-58
2023/08/17 04:21:32;;;;;;;6.20;3.73;;;;;;;20.90;100.00;99254.31;5108575;28;20326;-58
2023/08/17 04:23:59;;;;;;;5.77;3.60;;;;;;;20.90;100.00;99260.31;5109198;28;20643;-58
2023/08/17 04:26:26;;;;;;;4.50;3.40;;;;;;;20.97;100.00;99256.06;5109230;28;20202;-58
2023/08/17 04:28:53;;;;;;;5.80;3.80;;;;;;;21.03;100.00;99252.75;5108216;28;20201;-58
2023/08/17 04:31:21;;;;;;;5.93;3.60;;;;;;;21.07;100.00;99252.41;5108712;28;20231;-58
2023/08/17 04:33:48;;;;;;;6.97;3.90;;;;;;;21.13;100.00;99264.72;5108728;28;20200;-58
2023/08/17 04:36:14;;;;;;;6.00;3.70;;;;;;;21.18;100.00;99263.22;5108401;28;20726;-58
2023/08/17 04:38:41;;;;;;;4.90;3.47;;;;;;;21.26;100.00;99264.91;5107552;28;20707;-58
2023/08/17 04:41:08;;;;;;;4.33;3.30;;;;;;;21.34;100.00;99267.44;5106998;28;20631;-58
2023/08/17 04:43:35;;;;;;;4.63;3.43;;;;;;;21.45;100.00;99264.47;5107543;28;20273;-59
2023/08/17 04:46:02;;;;;;;4.57;3.50;;;;;;;21.54;100.00;99269.59;5108376;28;20230;-58
2023/08/17 04:48:30;;;;;;;4.53;3.63;;;;;;;21.61;100.00;99267.88;5108606;28;20208;-58
2023/08/17 04:50:56;;;;;;;6.97;3.83;;;;;;;21.76;100.00;99271.34;5108300;28;20258;-58
2023/08/17 04:53:23;;;;;;;6.43;3.47;;;;;;;21.86;100.00;99265.84;5108633;28;20201;-58
2023/08/17 04:55:50;;;;;;;5.47;3.73;;;;;;;21.97;100.00;99278.44;5108529;28;20200;-58
2023/08/17 04:58:17;;;;;;;5.88;4.00;;;;;;;22.09;100.00;99276.19;5108469;28;20220;-58
2023/08/17 05:00:44;;;;;;;5.10;3.70;;;;;;;22.20;100.00;99277.56;5108859;28;20204;-59
2023/08/17 05:03:10;;;;;;;5.65;4.00;;;;;;;22.36;99.41;99282.56;5108599;28;20229;-58
2023/08/17 05:05:38;;;;;;;5.93;4.20;;;;;;;22.47;98.70;99273.47;5108448;28;20204;-58
2023/08/17 05:08:06;;;;;;;8.35;4.40;;;;;;;22.63;98.94;99272.44;5108548;28;20197;-59
2023/08/17 05:10:32;;;;;;;6.53;4.38;;;;;;;22.77;98.60;99269.78;5108326;28;20209;-59
2023/08/17 05:12:59;;;;;;;6.63;3.90;;;;;;;22.92;97.13;99266.31;5108478;28;20212;-59
2023/08/17 05:15:26;;;;;;;5.28;3.97;;;;;;;23.07;96.90;99274.94;5108438;28;20212;-58
2023/08/17 05:17:53;;;;;;;17.65;4.57;;;;;;;23.15;93.65;99280.00;5107947;28;20216;-59
2023/08/17 05:20:20;;;;;;;7.22;4.10;;;;;;;23.30;94.71;99268.69;5108262;28;20624;-58
2023/08/17 05:22:48;;;;;;;4.93;3.83;;;;;;;23.50;95.83;99274.84;5108065;28;20225;-59
2023/08/17 05:25:15;;;;;;;5.65;3.78;;;;;;;23.62;94.84;99282.97;5108188;28;20204;-58
2023/08/17 05:27:42;;;;;;;6.13;3.97;;;;;;;23.73;91.95;99278.06;5108133;28;20205;-58
2023/08/17 05:30:09;;;;;;;6.20;3.90;;;;;;;23.89;91.17;99274.34;5108143;28;20592;-59
2023/08/17 05:32:36;;;;;;;4.78;3.85;;;;;;;24.01;89.54;99286.88;5108042;28;20193;-58
2023/08/17 05:35:03;;;;;;;6.00;3.92;;;;;;;24.11;90.18;99282.88;5108336;28;20287;-59
2023/08/17 05:37:30;;;;;;;5.82;4.05;;;;;;;24.25;88.36;99280.34;5108391;28;20212;-59
2023/08/17 05:39:58;;;;;;;5.53;4.03;;;;;;;24.39;89.41;99277.59;5107957;28;20624;-59
2023/08/17 05:42:25;;;;;;;5.50;3.67;;;;;;;24.55;89.32;99284.31;5108388;28;20319;-58
2023/08/17 05:44:52;;;;;;;6.90;4.10;;;;;;;24.63;86.49;99281.50;5108114;28;20287;-58
2023/08/17 05:47:19;;;;;;;6.43;4.25;;;;;;;24.70;85.98;99278.13;5107931;28;20197;-59
2023/08/17 05:49:45;;;;;;;6.10;3.83;;;;;;;24.83;85.44;99280.75;5107877;28;20204;-59
2023/08/17 05:52:13;;;;;;;6.95;4.30;;;;;;;24.98;87.27;99276.16;5111332;28;20206;-58
2023/08/17 05:54:39;;;;;;;6.03;4.00;;;;;;;25.12;84.42;99284.81;5112156;28;20208;-59
2023/08/17 05:57:08;;;;;;;6.45;4.00;;;;;;;25.23;85.18;99291.31;5112151;28;20261;-59
2023/08/17 05:59:35;;;;;;;5.35;4.20;;;;;;;25.40;85.49;99279.44;5112123;28;20205;-58
2023/08/17 06:02:02;;;;;;;8.68;4.53;;;;;;;25.51;83.85;99288.47;5111915;28;20236;-59
2023/08/17 06:04:28;;;;;;;6.47;4.03;;;;;;;25.66;84.29;99283.03;5111855;28;20935;-59
2023/08/17 06:06:56;;;;;;;5.50;4.32;;;;;;;25.83;83.96;99286.03;5111577;28;20201;-59
2023/08/17 06:09:22;;;;;;;5.20;4.38;;;;;;;25.95;80.63;99287.03;5111679;28;20206;-59
2023/08/17 06:11:49;;;;;;;8.02;4.50;;;;;;;26.13;84.87;99275.88;5111615;28;20201;-59
2023/08/17 06:14:17;;;;;;;6.78;4.05;;;;;;;26.27;80.91;99279.25;5111559;28;20209;-58
2023/08/17 06:16:44;;;;;;;9.13;4.40;;;;;;;26.32;80.50;99280.22;5111421;28;20201;-60
2023/08/17 06:19:11;;;;;;;13.32;4.45;;;;;;;26.52;81.01;99284.59;5111600;28;20197;-59
2023/08/17 06:21:38;;;;;;;6.18;4.45;;;;;;;26.67;80.88;99287.75;5111488;28;20466;-59
2023/08/17 06:24:05;;;;;;;5.32;3.70;;;;;;;26.78;79.21;99288.91;5111711;28;20212;-59
2023/08/17 06:26:32;;;;;;;4.43;4.00;;;;;;;26.85;78.29;99295.72;5111584;28;20194;-58
2023/08/17 06:28:59;;;;;;;5.93;4.03;;;;;;;26.94;78.40;99293.66;5111119;28;20222;-59
2023/08/17 06:31:27;;;;;;;5.60;4.05;;;;;;;27.14;78.19;99295.31;5111454;28;20209;-58
2023/08/17 06:33:54;;;;;;;6.60;4.40;;;;;;;27.26;75.96;99297.09;5111224;28;20313;-59
2023/08/17 06:36:21;;;;;;;10.35;4.45;;;;;;;27.44;77.38;99304.22;5111226;28;20678;-59
2023/08/17 06:38:48;;;;;;;6.53;4.45;;;;;;;27.59;77.83;99311.75;5111212;28;20189;-58
2023/08/17 06:41:14;;;;;;;5.20;4.00;;;;;;;27.66;77.79;99307.22;5111380;28;20683;-59
2023/08/17 06:43:41;;;;;;;4.93;4.05;;;;;;;27.73;76.35;99302.72;5110926;28;20225;-59
2023/08/17 06:46:08;;;;;;;6.03;4.00;;;;;;;27.92;77.08;99310.66;5111035;28;20696;-59
2023/08/17 06:48:36;;;;;;;5.63;4.35;;;;;;;28.07;72.14;99313.75;5111285;28;20201;-58
2023/08/17 06:51:04;;;;;;;5.05;4.20;;;;;;;28.09;75.16;99311.69;5110945;28;20205;-59
2023/08/17 06:53:31;;;;;;;5.28;4.30;;;;;;;28.29;75.01;99311.44;5111145;28;20250;-59
2023/08/17 06:55:58;;;;;;;5.13;4.07;;;;;;;28.54;79.24;99308.75;5110900;28;20209;-59
2023/08/17 06:58:25;;;;;;;5.32;4.38;;;;;;;28.76;75.73;99318.78;5111056;28;20205;-59
2023/08/17 07:00:51;;;;;;;6.50;4.35;;;;;;;28.87;70.76;99318.81;5110581;28;20209;-59
2023/08/17 07:03:18;;;;;;;5.35;4.40;;;;;;;28.98;67.78;99321.72;5110044;28;20713;-59
2023/08/17 07:05:47;;;;;;;4.93;3.92;;;;;;;29.07;70.58;99323.81;5110720;28;20198;-59
2023/08/17 07:08:14;;;;;;;6.80;4.72;;;;;;;29.16;68.71;99320.88;5110791;28;20202;-59
2023/08/17 07:10:41;;;;;;;4.65;3.90;;;;;;;29.26;66.83;99321.09;5110511;28;20632;-59
2023/08/17 07:13:07;;;;;;;5.85;4.13;;;;;;;29.30;67.17;99324.91;5110627;28;20221;-59
2023/08/17 07:15:34;;;;;;;4.68;4.07;;;;;;;29.42;69.59;99317.78;5110263;28;20727;-59
2023/08/17 07:18:01;;;;;;;6.97;4.55;;;;;;;29.45;65.82;99319.19;5110482;28;20209;-59
2023/08/17 07:20:28;;;;;;;5.90;4.40;;;;;;;29.51;69.06;99316.41;5110535;28;20197;-60
2023/08/17 07:22:56;;;;;;;5.20;4.03;;;;;;;29.65;66.16;99324.16;5110109;28;20233;-59
2023/08/17 07:25:23;;;;;;;7.13;4.53;;;;;;;29.58;70.44;99323.41;5110230;28;20597;-60
2023/08/17 07:27:50;;;;;;;5.75;4.60;;;;;;;29.64;68.26;99318.06;5110213;28;20207;-59
2023/08/17 07:30:17;;;;;;;5.57;4.13;;;;;;;29.74;66.07;99317.50;5110154;28;20190;-59
2023/08/17 07:32:44;;;;;;;5.28;4.20;;;;;;;29.96;67.24;99315.03;5109895;28;20662;-60
2023/08/17 07:35:11;;;;;;;4.68;3.75;;;;;;;30.21;66.36;99312.97;5110191;28;20673;-59
2023/08/17 07:37:37;;;;;;;6.13;4.07;;;;;;;30.38;65.63;99323.59;5110214;28;20197;-59
2023/08/17 07:40:07;;;;;;;6.30;5.05;;;;;;;30.55;67.27;99318.38;5110143;28;20201;-58
2023/08/17 07:42:34;;;;;;;5.18;4.10;;;;;;;30.61;64.26;99316.63;5109929;28;20226;-58
2023/08/17 07:45:02;;;;;;;6.50;4.18;;;;;;;30.56;59.88;99317.31;5109858;28;20706;-59
2023/08/17 07:47:29;;;;;;;5.32;3.90;;;;;;;30.59;65.86;99319.47;5109687;28;20730;-59
2023/08/17 07:49:57;;;;;;;5.22;4.30;;;;;;;30.77;67.90;99310.56;5109743;28;20205;-58
2023/08/17 07:52:24;;;;;;;5.80;4.13;;;;;;;30.93;65.71;99313.50;5109637;27;20190;-58
2023/08/17 07:54:51;;;;;;;7.35;4.50;;;;;;;31.11;66.43;99305.34;5109562;28;20581;-59
2023/08/17 07:57:19;;;;;;;4.70;4.20;;;;;;;31.14;60.15;99312.81;5109600;28;20220;-58
2023/08/17 07:59:46;;;;;;;5.38;3.88;;;;;;;31.37;65.08;99313.72;5109444;28;20233;-59
2023/08/17 08:02:13;;;;;;;10.00;3.95;;;;;;;31.35;63.03;99312.09;5109431;27;20197;-58
2023/08/17 08:04:39;;;;;;;7.03;4.00;;;;;;;31.33;63.20;99319.44;5109443;28;20209;-58
2023/08/17 08:07:06;;;;;;;4.13;3.70;;;;;;;31.35;62.51;99319.22;5109401;28;20678;-58
2023/08/17 08:09:33;;;;;;;4.80;4.10;;;;;;;31.27;60.34;99311.66;5109395;28;20205;-59
2023/08/17 08:12:00;;;;;;;4.82;3.90;;;;;;;31.15;64.34;99311.75;5109198;28;20213;-59
2023/08/17 08:14:29;;;;;;;4.43;3.53;;;;;;;31.28;63.95;99313.28;5108294;28;20205;-59
2023/08/17 08:16:55;;;;;;;5.03;4.00;;;;;;;31.59;70.63;99306.63;5109034;28;20202;-59
2023/08/17 08:19:22;;;;;;;4.93;3.80;;;;;;;31.73;61.03;99313.16;5109040;28;20198;-59
2023/08/17 08:21:49;;;;;;;4.90;4.03;;;;;;;31.84;60.60;99313.31;5109003;28;20209;-59
2023/08/17 08:24:16;;;;;;;5.38;4.00;;;;;;;31.95;60.07;99315.88;5108707;28;20717;-59
2023/08/17 08:26:42;;;;;;;5.38;4.38;;;;;;;32.00;61.72;99302.72;5109002;28;20210;-59
2023/08/17 08:29:09;;;;;;;6.43;3.92;;;;;;;32.10;61.14;99309.97;5109064;28;20193;-59
2023/08/17 08:31:37;;;;;;;6.97;4.30;;;;;;;31.97;59.15;99310.31;5109032;28;20710;-59
2023/08/17 08:34:04;;;;;;;4.82;3.97;;;;;;;32.22;63.14;99309.84;5109067;28;20201;-60
2023/08/17 08:36:31;;;;;;;6.57;4.50;;;;;;;32.18;59.56;99312.19;5108742;28;20200;-59
2023/08/17 08:38:58;;;;;;;5.07;4.18;;;;;;;32.03;58.76;99319.94;5108887;28;20197;-59
2023/08/17 08:41:27;;;;;;;5.47;4.35;;;;;;;32.11;62.54;99318.69;5108765;28;20197;-59
2023/08/17 08:43:54;;;;;;;4.75;4.03;;;;;;;32.09;58.89;99313.66;5108547;28;20237;-59
2023/08/17 08:46:21;;;;;;;6.55;4.13;;;;;;;32.17;60.67;99305.31;5109188;28;20212;-59
2023/08/17 08:48:53;;;;;;;6.88;4.65;;;;;;;32.21;61.28;99305.59;5108613;28;20224;-59
2023/08/17 08:51:26;;;;;;;8.05;4.40;;;;;;;32.01;55.83;99314.88;5108546;28;20198;-59
2023/08/17 08:54:02;;;;;;;5.20;4.35;;;;;;;32.15;55.91;99310.03;5108652;28;20736;-59
2023/08/17 08:56:33;;;;;;;5.57;4.38;;;;;;;32.10;59.66;99304.69;5108856;28;20204;-59
2023/08/17 08:59:02;;;;;;;5.35;4.40;;;;;;;32.14;60.24;99295.19;5108471;28;20250;-60
2023/08/17 09:01:31;;;;;;;5.97;4.28;;;;;;;32.23;57.92;99295.53;5108513;28;20209;-59
2023/08/17 09:04:01;;;;;;;5.70;4.53;;;;;;;32.28;57.63;99294.81;5108479;28;20628;-59
2023/08/17 09:06:30;;;;;;;7.88;4.93;;;;;;;32.48;59.51;99295.06;5108364;28;20213;-59
2023/08/17 09:08:58;;;;;;;7.00;4.97;;;;;;;32.38;53.04;99297.59;5108175;28;20209;-59
2023/08/17 09:11:25;;;;;;;5.32;4.65;;;;;;;32.57;54.51;99298.84;5108238;28;20316;-59
2023/08/17 09:13:54;;;;;;;6.13;4.63;;;;;;;32.75;57.51;99286.31;5108393;28;20204;-59
2023/08/17 09:16:21;;;;;;;8.68;4.90;;;;;;;32.45;53.47;99292.91;5108056;28;20207;-59
2023/08/17 09:18:48;;;;;;;5.53;4.75;;;;;;;32.52;56.39;99288.22;5108318;28;20537;-59
2023/08/17 09:21:23;;;;;;;5.75;4.72;;;;;;;32.61;54.72;99286.72;5108159;28;20197;-60
2023/08/17 09:23:54;;;;;;;7.07;4.72;;;;;;;32.85;56.19;99286.41;5108158;28;20319;-60
2023/08/17 09:26:21;;;;;;;8.02;5.07;;;;;;;32.76;56.34;99286.06;5107871;28;20225;-59
2023/08/17 09:28:48;;;;;;;5.40;4.82;;;;;;;32.95;53.20;99288.34;5108096;28;21204;-59
2023/08/17 09:31:15;;;;;;;6.65;4.72;;;;;;;32.99;51.69;99286.78;5108273;28;20205;-59
2023/08/17 09:33:42;;;;;;;6.55;4.50;;;;;;;33.09;55.21;99287.69;5108181;28;20240;-59
2023/08/17 09:36:12;;;;;;;4.85;4.15;;;;;;;33.21;51.60;99292.00;5108228;28;20204;-59
2023/08/17 09:38:40;;;;;;;8.05;4.95;;;;;;;33.34;54.34;99283.63;5107983;28;20221;-60
2023/08/17 09:41:07;;;;;;;5.88;4.57;;;;;;;33.47;53.60;99287.66;5108120;28;20197;-60
2023/08/17 09:43:34;;;;;;;7.93;5.25;;;;;;;33.50;50.76;99277.34;5108188;28;20240;-59
2023/08/17 09:46:03;;;;;;;7.38;4.75;;;;;;;33.36;52.75;99273.53;5108127;28;20206;-60
2023/08/17 09:48:30;;;;;;;6.28;4.88;;;;;;;33.16;50.22;99286.66;5107976;28;20197;-59
2023/08/17 09:50:58;;;;;;;6.78;5.25;;;;;;;33.44;52.49;99275.72;5107825;28;20209;-59
2023/08/17 09:53:25;;;;;;;7.22;4.80;;;;;;;33.59;51.32;99277.69;5107864;28;20243;-60
2023/08/17 09:55:55;;;;;;;6.53;4.72;;;;;;;33.62;50.28;99268.41;5107804;28;20197;-59
2023/08/17 09:58:21;;;;;;;6.68;4.82;;;;;;;33.32;50.52;99267.97;5108118;28;20240;-59
2023/08/17 10:00:50;;;;;;;5.57;4.18;;;;;;;33.41;50.76;99262.19;5107920;28;20202;-59
2023/08/17 10:03:18;;;;;;;5.28;4.60;;;;;;;33.52;49.92;99264.66;5107924;28;20234;-59
2023/08/17 10:05:48;;;;;;;4.95;4.45;;;;;;;33.60;49.53;99266.03;5107899;28;20209;-59
2023/08/17 10:08:21;;;;;;;5.60;4.60;;;;;;;33.75;51.05;99263.47;5107995;28;20225;-60
2023/08/17 10:10:48;;;;;;;6.13;5.03;;;;;;;34.01;52.39;99256.41;5107892;28;20202;-59
2023/08/17 10:13:29;;;;;;;6.78;4.78;;;;;;;34.01;47.16;99267.00;5107703;28;20232;-61
2023/08/17 10:16:03;;;;;;;6.05;4.50;;;;;;;33.52;46.48;99259.38;5107397;28;20193;-60
2023/08/17 10:18:43;;;;;;;5.80;4.30;;;;;;;33.74;48.90;99261.06;5107872;28;20274;-60
2023/08/17 10:21:18;;;;;;;8.32;4.72;;;;;;;33.84;47.39;99258.44;5107715;28;20579;-60
2023/08/17 10:23:46;;;;;;;5.97;4.80;;;;;;;33.95;48.17;99257.44;5107643;28;20236;-59
2023/08/17 10:26:13;;;;;;;6.90;4.82;;;;;;;34.06;44.91;99257.47;5107832;28;20210;-60
2023/08/17 10:28:42;;;;;;;5.38;4.55;;;;;;;34.24;45.95;99264.97;5107929;28;20219;-60
2023/08/17 10:31:10;;;;;;;5.97;5.03;;;;;;;34.17;46.95;99248.50;5107693;28;20201;-59
2023/08/17 10:33:38;;;;;;;6.20;4.93;;;;;;;34.25;47.47;99254.09;5107610;28;20197;-60
2023/08/17 10:36:06;;;;;;;6.45;4.70;;;;;;;34.28;46.26;99255.44;5107809;28;20429;-60
2023/08/17 10:38:33;;;;;;;6.65;4.72;;;;;;;34.39;47.38;99249.06;5110039;28;20202;-60
2023/08/17 10:41:11;;;;;;;7.25;4.60;;;;;;;34.51;46.16;99253.34;5111121;28;20205;-60
2023/08/17 10:43:59;;;;;;;5.30;4.70;;;;;;;34.61;46.13;99226.81;5111045;28;20319;-60
2023/08/17 10:46:36;;;;;;;6.50;4.55;;;;;;;34.71;47.43;99240.09;5111205;28;20577;-57
2023/08/17 10:49:06;;;;;;;5.30;4.65;;;;;;;34.62;46.50;99239.03;5110953;28;20204;-57
2023/08/17 10:51:33;;;;;;;6.38;4.63;;;;;;;34.62;45.11;99236.38;5110954;28;20223;-60
2023/08/17 10:54:03;;;;;;;6.32;4.90;;;;;;;34.79;45.22;99239.56;5111063;28;20210;-60
2023/08/17 10:56:30;;;;;;;7.20;4.68;;;;;;;34.50;45.01;99231.28;5110959;28;20270;-60
2023/08/17 10:59:02;;;;;;;4.90;4.40;;;;;;;34.72;47.61;99228.41;5110963;28;20240;-60
2023/08/17 11:01:34;;;;;;;5.38;4.60;;;;;;;34.67;43.74;99231.06;5111270;28;20221;-60
2023/08/17 11:04:16;;;;;;;6.00;4.25;;;;;;;34.64;44.89;99219.09;5110698;28;20251;-60
2023/08/17 11:06:44;;;;;;;5.40;4.43;;;;;;;34.52;43.85;99223.84;5110760;28;20204;-60
2023/08/17 11:09:11;;;;;;;8.45;4.68;;;;;;;34.59;44.82;99221.78;5110500;28;20198;-60
2023/08/17 11:11:38;;;;;;;4.93;4.25;;;;;;;34.89;45.74;99212.97;5110735;27;20201;-59
2023/08/17 11:14:06;;;;;;;5.90;4.40;;;;;;;35.08;42.70;99212.44;5110748;28;20212;-57
2023/08/17 11:16:33;;;;;;;7.22;4.80;;;;;;;34.88;42.57;99218.59;5110570;28;20204;-60
2023/08/17 11:19:01;;;;;;;9.48;4.65;;;;;;;35.00;45.26;99213.78;5110343;28;20205;-59
2023/08/17 11:21:28;;;;;;;5.18;4.25;;;;;;;34.60;41.87;99215.41;5110501;28;20209;-57
2023/08/17 11:23:58;;;;;;;4.97;4.35;;;;;;;34.61;42.76;99216.19;5110198;28;21005;-57
2023/08/17 11:26:25;;;;;;;8.02;4.55;;;;;;;34.43;41.55;99210.31;5110659;28;20720;-59
2023/08/17 11:28:52;;;;;;;5.28;4.35;;;;;;;34.67;42.25;99215.13;5110138;27;20250;-60
2023/08/17 11:31:21;;;;;;;5.45;3.95;;;;;;;34.83;40.96;99215.94;5110178;28;20294;-60
2023/08/17 11:33:48;;;;;;;5.97;4.55;;;;;;;34.93;40.64;99213.25;5110010;28;20220;-59